Time;durP1;ratioP1;P1;durP2;ratioP2;P2;SDS_P1;SDS_P2;PMS_P1;PMS_P2;Temp;Humidity;BMP_temperature;BMP_pressure;BME280_temperature;BME280_humidity;BME280_pressure;Samples;Min_cycle;Max_cycle;Signal;HPM_P1;HPM_P2
2023/07/17 00:00:11;;;;;;;;;;;;;;;26.14;nan;101550.91;5059554;28;20038;-83
2023/07/17 00:02:37;;;;;;;;;;;;;;;26.10;nan;101549.97;5058918;28;19923;-82
2023/07/17 00:05:04;;;;;;;;;;;;;;;26.06;nan;101546.31;5055760;28;19924;-82
2023/07/17 00:07:29;;;;;;;;;;;;;;;26.00;nan;101547.63;5057599;28;19924;-83
2023/07/17 00:09:54;;;;;;;;;;;;;;;25.96;nan;101546.69;5052344;28;19927;-82
2023/07/17 00:12:20;;;;;;;;;;;;;;;25.93;nan;101541.84;5059885;28;19966;-83
2023/07/17 00:14:45;;;;;;;;;;;;;;;25.88;nan;101544.81;5061958;28;19955;-83
2023/07/17 00:17:10;;;;;;;;;;;;;;;25.85;nan;101540.78;5061357;28;20462;-82
2023/07/17 00:19:37;;;;;;;;;;;;;;;25.83;nan;101542.22;5062319;28;19960;-83
2023/07/17 00:22:03;;;;;;;;;;;;;;;25.79;nan;101539.34;5062060;28;19920;-83
2023/07/17 00:24:28;;;;;;;;;;;;;;;25.77;nan;101540.81;5062588;28;20257;-83
2023/07/17 00:26:53;;;;;;;;;;;;;;;25.76;nan;101541.97;5064613;28;20596;-82
2023/07/17 00:29:31;;;;;;;;;;;;;;;25.73;nan;101537.13;5057702;28;19928;-82
2023/07/17 00:31:57;;;;;;;;;;;;;;;25.71;nan;101539.41;5061860;28;19916;-82
2023/07/17 00:34:22;;;;;;;;;;;;;;;25.68;nan;101538.13;5063046;28;19920;-83
2023/07/17 00:36:47;;;;;;;;;;;;;;;25.67;nan;101541.16;5062938;28;19923;-83
2023/07/17 00:39:13;;;;;;;;;;;;;;;25.65;nan;101535.19;5058636;28;20455;-82
2023/07/17 00:41:39;;;;;;;;;;;;;;;25.61;nan;101529.56;5057258;28;19921;-83
2023/07/17 00:44:04;;;;;;;;;;;;;;;25.59;nan;101532.66;5063398;28;19923;-83
2023/07/17 00:46:30;;;;;;;;;;;;;;;25.59;nan;101529.09;5054906;28;20158;-82
2023/07/17 00:48:56;;;;;;;;;;;;;;;25.56;nan;101522.34;5057249;28;19916;-82
2023/07/17 00:51:21;;;;;;;;;;;;;;;25.53;nan;101523.00;5055257;28;20365;-83
2023/07/17 00:53:47;;;;;;;;;;;;;;;25.47;nan;101524.31;5054204;28;20284;-83
2023/07/17 00:56:12;;;;;;;;;;;;;;;25.45;nan;101520.28;5061163;28;20393;-83
2023/07/17 00:58:37;;;;;;;;;;;;;;;25.43;nan;101526.09;5052916;28;19917;-83
2023/07/17 01:01:03;;;;;;;;;;;;;;;25.39;nan;101521.63;5055319;28;20438;-82
2023/07/17 01:03:29;;;;;;;;;;;;;;;25.36;nan;101528.56;5057410;28;19970;-83
2023/07/17 01:05:56;;;;;;;;;;;;;;;25.34;nan;101522.59;5059061;28;19969;-82
2023/07/17 01:08:21;;;;;;;;;;;;;;;25.33;nan;101515.50;5056281;28;19970;-82
2023/07/17 01:10:47;;;;;;;;;;;;;;;25.33;nan;101523.75;5058328;28;20334;-83
2023/07/17 01:13:12;;;;;;;;;;;;;;;25.32;nan;101522.13;5056643;28;20621;-83
2023/07/17 01:15:38;;;;;;;;;;;;;;;25.30;nan;101524.38;5053910;28;19991;-83
2023/07/17 01:18:03;;;;;;;;;;;;;;;25.25;nan;101517.13;5052542;28;20075;-82
2023/07/17 01:20:28;;;;;;;;;;;;;;;25.18;nan;101518.78;5057265;28;19916;-83
2023/07/17 01:22:59;;;;;;;;;;;;;;;25.16;nan;101519.13;5055071;28;19974;-83
2023/07/17 01:25:24;;;;;;;;;;;;;;;25.16;nan;101521.06;5057529;28;19924;-83
2023/07/17 01:27:49;;;;;;;;;;;;;;;25.17;nan;101515.25;5054344;28;19958;-83
2023/07/17 01:30:15;;;;;;;;;;;;;;;25.17;nan;101514.44;5056451;28;20309;-82
2023/07/17 01:32:40;;;;;;;;;;;;;;;25.13;nan;101514.28;5051549;28;19917;-83
2023/07/17 01:35:06;;;;;;;;;;;;;;;25.13;nan;101513.47;5056770;28;19948;-83
2023/07/17 01:37:31;;;;;;;;;;;;;;;25.09;nan;101510.59;5055548;28;20339;-83
2023/07/17 01:39:56;;;;;;;;;;;;;;;25.07;nan;101504.63;5055869;28;20079;-82
2023/07/17 01:42:22;;;;;;;;;;;;;;;25.06;nan;101504.94;5055075;28;20285;-83
2023/07/17 01:44:47;;;;;;;;;;;;;;;25.07;nan;101506.56;5053800;28;19932;-82
2023/07/17 01:47:12;;;;;;;;;;;;;;;25.06;nan;101510.44;5055789;28;20558;-83
2023/07/17 01:49:38;;;;;;;;;;;;;;;25.04;nan;101516.25;5058450;28;20071;-82
2023/07/17 01:52:03;;;;;;;;;;;;;;;25.02;nan;101517.72;5057876;28;19924;-83
2023/07/17 01:54:28;;;;;;;;;;;;;;;25.02;nan;101517.72;5055601;28;20280;-83
2023/07/17 01:56:54;;;;;;;;;;;;;;;24.99;nan;101519.97;5056902;28;20324;-82
2023/07/17 01:59:19;;;;;;;;;;;;;;;24.99;nan;101517.25;5056395;28;19987;-83
2023/07/17 02:01:45;;;;;;;;;;;;;;;25.00;nan;101532.56;5059033;28;19916;-82
2023/07/17 02:04:10;;;;;;;;;;;;;;;24.96;nan;101526.09;5053371;28;19978;-82
2023/07/17 02:06:35;;;;;;;;;;;;;;;24.94;nan;101527.53;5055934;28;19920;-82
2023/07/17 02:09:01;;;;;;;;;;;;;;;24.88;nan;101532.38;5056286;28;19921;-82
2023/07/17 02:11:29;;;;;;;;;;;;;;;24.85;nan;101530.28;5056377;28;19917;-82
2023/07/17 02:13:54;;;;;;;;;;;;;;;24.87;nan;101532.72;5058798;28;19921;-82
2023/07/17 02:16:19;;;;;;;;;;;;;;;24.91;nan;101533.66;5052401;28;19970;-83
2023/07/17 02:18:45;;;;;;;;;;;;;;;24.94;nan;101541.22;5056468;28;19917;-82
2023/07/17 02:21:10;;;;;;;;;;;;;;;24.94;nan;101535.75;5054959;28;19924;-82
2023/07/17 02:23:35;;;;;;;;;;;;;;;24.93;nan;101534.13;5055105;28;20395;-82
2023/07/17 02:26:01;;;;;;;;;;;;;;;24.91;nan;101544.63;5053100;28;20011;-82
2023/07/17 02:28:26;;;;;;;;;;;;;;;24.87;nan;101539.00;5055148;28;20024;-82
2023/07/17 02:30:51;;;;;;;;;;;;;;;24.85;nan;101530.28;5058178;28;19962;-82
2023/07/17 02:33:16;;;;;;;;;;;;;;;24.82;nan;101530.94;5059878;28;19925;-82
2023/07/17 02:35:42;;;;;;;;;;;;;;;24.79;nan;101530.81;5065576;28;19916;-82
2023/07/17 02:38:07;;;;;;;;;;;;;;;24.76;nan;101536.91;5057503;28;20269;-82
2023/07/17 02:40:32;;;;;;;;;;;;;;;24.72;nan;101542.25;5055386;28;19923;-82
2023/07/17 02:42:58;;;;;;;;;;;;;;;24.71;nan;101549.66;5062306;28;19960;-82
2023/07/17 02:45:23;;;;;;;;;;;;;;;24.68;nan;101552.25;5058536;28;19917;-83
2023/07/17 02:47:48;;;;;;;;;;;;;;;24.60;nan;101561.28;5059349;28;20392;-82
2023/07/17 02:50:14;;;;;;;;;;;;;;;24.56;nan;101565.78;5059528;28;19920;-82
2023/07/17 02:52:39;;;;;;;;;;;;;;;24.51;nan;101555.78;5057063;28;20506;-82
2023/07/17 02:55:05;;;;;;;;;;;;;;;24.48;nan;101553.72;5058299;28;20375;-82
2023/07/17 02:57:36;;;;;;;;;;;;;;;24.49;nan;101551.78;5057860;28;19924;-81
2023/07/17 03:00:09;;;;;;;;;;;;;;;24.48;nan;101550.97;5055243;28;19921;-82
2023/07/17 03:02:35;;;;;;;;;;;;;;;24.46;nan;101549.69;5056544;28;20014;-83
2023/07/17 03:05:08;;;;;;;;;;;;;;;24.45;nan;101550.81;5057276;28;20151;-82
2023/07/17 03:07:35;;;;;;;;;;;;;;;24.44;nan;101552.75;5058130;28;19920;-83
2023/07/17 03:10:00;;;;;;;;;;;;;;;24.41;nan;101554.16;5057941;28;19927;-82
2023/07/17 03:12:25;;;;;;;;;;;;;;;24.36;nan;101557.06;5058559;28;19924;-82
2023/07/17 03:14:50;;;;;;;;;;;;;;;24.34;nan;101553.84;5060577;28;20013;-83
2023/07/17 03:17:16;;;;;;;;;;;;;;;24.31;nan;101551.75;5055421;28;21138;-83
2023/07/17 03:19:41;;;;;;;;;;;;;;;24.31;nan;101550.97;5058091;28;19942;-82
2023/07/17 03:22:06;;;;;;;;;;;;;;;24.31;nan;101554.50;5056362;28;19970;-82
2023/07/17 03:24:32;;;;;;;;;;;;;;;24.32;nan;101555.31;5053533;28;19923;-82
2023/07/17 03:26:58;;;;;;;;;;;;;;;24.32;nan;101561.59;5058597;28;19917;-82
2023/07/17 03:29:24;;;;;;;;;;;;;;;24.30;nan;101563.84;5055177;28;19916;-82
2023/07/17 03:31:49;;;;;;;;;;;;;;;24.27;nan;101556.25;5050373;28;19920;-82
2023/07/17 03:34:14;;;;;;;;;;;;;;;24.29;nan;101555.97;5051394;28;20414;-83
2023/07/17 03:36:40;;;;;;;;;;;;;;;24.29;nan;101554.03;5047241;28;19924;-82
2023/07/17 03:39:05;;;;;;;;;;;;;;;24.31;nan;101556.44;5055277;28;19932;-82
2023/07/17 03:41:30;;;;;;;;;;;;;;;24.32;nan;101556.13;5053838;28;20339;-82
2023/07/17 03:43:58;;;;;;;;;;;;;;;24.33;nan;101552.25;5055303;28;20377;-82
2023/07/17 03:46:23;;;;;;;;;;;;;;;24.30;nan;101544.69;5054784;28;20498;-82
2023/07/17 03:48:48;;;;;;;;;;;;;;;24.29;nan;101534.03;5054589;28;20002;-82
2023/07/17 03:51:14;;;;;;;;;;;;;;;24.27;nan;101537.09;5054833;28;19952;-82
2023/07/17 03:53:39;;;;;;;;;;;;;;;24.28;nan;101537.88;5055281;28;20002;-82
2023/07/17 03:56:04;;;;;;;;;;;;;;;24.28;nan;101537.88;5057400;28;19916;-82
2023/07/17 03:58:30;;;;;;;;;;;;;;;24.29;nan;101540.31;5055054;28;20429;-82
2023/07/17 04:00:55;;;;;;;;;;;;;;;24.32;nan;101538.88;5056395;28;19917;-82
2023/07/17 04:03:20;;;;;;;;;;;;;;;24.32;nan;101545.16;5053365;28;20429;-82
2023/07/17 04:05:47;;;;;;;;;;;;;;;24.36;nan;101534.34;5057770;28;19949;-82
2023/07/17 04:08:12;;;;;;;;;;;;;;;24.38;nan;101521.16;5062851;28;19920;-82
2023/07/17 04:10:38;;;;;;;;;;;;;;;24.45;nan;101532.44;5062834;28;19974;-82
2023/07/17 04:13:03;;;;;;;;;;;;;;;24.52;nan;101523.72;5057273;28;20018;-83
2023/07/17 04:15:29;;;;;;;;;;;;;;;24.58;nan;101523.22;5057772;28;19921;-82
2023/07/17 04:17:54;;;;;;;;;;;;;;;24.65;nan;101536.47;5057421;28;19999;-82
2023/07/17 04:20:20;;;;;;;;;;;;;;;24.67;nan;101531.44;5058412;28;19925;-82
2023/07/17 04:22:45;;;;;;;;;;;;;;;24.71;nan;101532.41;5057601;28;19928;-82
2023/07/17 04:25:10;;;;;;;;;;;;;;;24.73;nan;101532.88;5055401;28;19927;-83
2023/07/17 04:27:35;;;;;;;;;;;;;;;24.76;nan;101543.19;5059289;28;19920;-82
2023/07/17 04:30:01;;;;;;;;;;;;;;;24.77;nan;101544.81;5058837;28;20392;-82
2023/07/17 04:32:26;;;;;;;;;;;;;;;24.75;nan;101533.38;5059031;28;19923;-82
2023/07/17 04:34:51;;;;;;;;;;;;;;;24.77;nan;101535.78;5059956;28;19921;-83
2023/07/17 04:37:18;;;;;;;;;;;;;;;24.83;nan;101535.31;5059717;28;20277;-82
2023/07/17 04:39:43;;;;;;;;;;;;;;;24.94;nan;101536.53;5056592;28;20514;-82
2023/07/17 04:42:09;;;;;;;;;;;;;;;25.06;nan;101540.59;5058638;28;19924;-82
2023/07/17 04:44:34;;;;;;;;;;;;;;;25.17;nan;101539.13;5055706;28;20397;-82
2023/07/17 04:46:59;;;;;;;;;;;;;;;25.23;nan;101535.88;5056888;28;19935;-83
2023/07/17 04:49:24;;;;;;;;;;;;;;;25.31;nan;101545.19;5060330;28;20403;-83
2023/07/17 04:51:50;;;;;;;;;;;;;;;25.39;nan;101535.31;5056954;28;19932;-82
2023/07/17 04:54:15;;;;;;;;;;;;;;;25.49;nan;101543.97;5052390;28;20010;-83
2023/07/17 04:56:41;;;;;;;;;;;;;;;25.57;nan;101537.66;5060834;28;20376;-82
2023/07/17 04:59:06;;;;;;;;;;;;;;;25.69;nan;101542.50;5058788;28;19932;-83
2023/07/17 05:01:31;;;;;;;;;;;;;;;25.78;nan;101537.75;5058908;28;19931;-83
2023/07/17 05:03:57;;;;;;;;;;;;;;;25.85;nan;101539.94;5055470;28;19924;-82
2023/07/17 05:06:22;;;;;;;;;;;;;;;25.87;nan;101543.19;5057307;28;19917;-82
2023/07/17 05:08:47;;;;;;;;;;;;;;;25.93;nan;101539.13;5056779;28;19920;-83
2023/07/17 05:11:12;;;;;;;;;;;;;;;26.04;nan;101532.09;5058241;28;19916;-83
2023/07/17 05:13:38;;;;;;;;;;;;;;;26.14;nan;101534.44;5064213;28;20319;-82
2023/07/17 05:16:03;;;;;;;;;;;;;;;26.26;nan;101528.22;5056758;28;19956;-82
2023/07/17 05:18:28;;;;;;;;;;;;;;;26.43;nan;101538.28;5058906;28;19916;-83
2023/07/17 05:20:54;;;;;;;;;;;;;;;26.59;nan;101525.53;5059331;28;20432;-83
2023/07/17 05:23:19;;;;;;;;;;;;;;;26.75;nan;101525.69;5055424;28;19931;-82
2023/07/17 05:25:54;;;;;;;;;;;;;;;26.93;nan;101529.06;5057252;28;19961;-82
2023/07/17 05:28:20;;;;;;;;;;;;;;;27.01;nan;101526.25;5056362;28;19920;-82
2023/07/17 05:30:45;;;;;;;;;;;;;;;27.07;nan;101530.38;5057575;28;19959;-83
2023/07/17 05:33:11;;;;;;;;;;;;;;;27.12;nan;101540.41;5056374;28;19982;-82
2023/07/17 05:35:37;;;;;;;;;;;;;;;27.14;nan;101540.06;5056164;28;19932;-82
2023/07/17 05:38:03;;;;;;;;;;;;;;;27.07;nan;101530.38;5054220;28;19924;-82
2023/07/17 05:40:28;;;;;;;;;;;;;;;27.06;nan;101539.78;5059241;28;20419;-82
2023/07/17 05:42:54;;;;;;;;;;;;;;;27.09;nan;101532.78;5057874;28;19925;-82
2023/07/17 05:45:19;;;;;;;;;;;;;;;27.13;nan;101522.75;5055855;28;19931;-82
2023/07/17 05:47:44;;;;;;;;;;;;;;;27.19;nan;101537.88;5054239;28;19967;-82
2023/07/17 05:50:10;;;;;;;;;;;;;;;27.23;nan;101525.03;5054002;28;20343;-82
2023/07/17 05:52:35;;;;;;;;;;;;;;;27.30;nan;101530.78;5054449;28;19923;-82
2023/07/17 05:55:00;;;;;;;;;;;;;;;27.44;nan;101526.88;5058534;28;20394;-82
2023/07/17 05:57:26;;;;;;;;;;;;;;;27.61;nan;101512.88;5055495;28;20384;-82
2023/07/17 05:59:51;;;;;;;;;;;;;;;27.80;nan;101524.16;5056298;28;20359;-82
2023/07/17 06:02:16;;;;;;;;;;;;;;;27.92;nan;101526.88;5057337;28;19997;-82
2023/07/17 06:04:41;;;;;;;;;;;;;;;28.00;nan;101517.69;5057826;28;20046;-82
2023/07/17 06:07:07;;;;;;;;;;;;;;;28.03;nan;101510.69;5058086;28;19924;-82
2023/07/17 06:09:34;;;;;;;;;;;;;;;28.07;nan;101522.63;5056473;28;19932;-83
2023/07/17 06:12:00;;;;;;;;;;;;;;;28.17;nan;101526.81;5057817;28;20388;-82
2023/07/17 06:14:25;;;;;;;;;;;;;;;28.32;nan;101534.38;5056409;28;19928;-82
2023/07/17 06:16:50;;;;;;;;;;;;;;;28.40;nan;101524.41;5057942;28;20092;-82
2023/07/17 06:19:16;;;;;;;;;;;;;;;28.49;nan;101523.06;5057331;28;19931;-82
2023/07/17 06:21:41;;;;;;;;;;;;;;;28.64;nan;101524.28;5055289;28;19928;-82
2023/07/17 06:24:07;;;;;;;;;;;;;;;28.80;nan;101527.06;5056711;28;20400;-82
2023/07/17 06:26:33;;;;;;;;;;;;;;;28.89;nan;101519.44;5055318;28;20066;-82
2023/07/17 06:28:59;;;;;;;;;;;;;;;28.86;nan;101509.13;5058374;28;19925;-82
2023/07/17 06:31:24;;;;;;;;;;;;;;;28.97;nan;101510.22;5057031;28;19989;-82
2023/07/17 06:33:50;;;;;;;;;;;;;;;29.12;nan;101516.91;5057944;28;19920;-82
2023/07/17 06:36:15;;;;;;;;;;;;;;;29.18;nan;101521.00;5059815;28;19916;-82
2023/07/17 06:38:40;;;;;;;;;;;;;;;29.27;nan;101523.59;5057659;28;19927;-82
2023/07/17 06:41:06;;;;;;;;;;;;;;;29.34;nan;101516.28;5060732;28;19939;-83
2023/07/17 06:43:31;;;;;;;;;;;;;;;29.43;nan;101522.41;5056027;28;19924;-82
2023/07/17 06:45:57;;;;;;;;;;;;;;;29.53;nan;101521.09;5061022;28;20328;-82
2023/07/17 06:48:22;;;;;;;;;;;;;;;29.62;nan;101523.66;5054828;28;20055;-82
2023/07/17 06:50:47;;;;;;;;;;;;;;;29.71;nan;101527.84;5057365;28;20018;-82
2023/07/17 06:53:13;;;;;;;;;;;;;;;29.73;nan;101522.75;5054656;28;19921;-82
2023/07/17 06:55:38;;;;;;;;;;;;;;;29.75;nan;101527.91;5055272;28;19974;-82
2023/07/17 06:58:03;;;;;;;;;;;;;;;29.85;nan;101527.38;5052724;28;19916;-82
2023/07/17 07:00:28;;;;;;;;;;;;;;;29.93;nan;101515.31;5055582;28;20483;-83
2023/07/17 07:02:54;;;;;;;;;;;;;;;30.08;nan;101522.78;5058693;28;20009;-82
2023/07/17 07:05:20;;;;;;;;;;;;;;;30.20;nan;101519.09;5049696;28;20029;-82
2023/07/17 07:07:45;;;;;;;;;;;;;;;30.34;nan;101524.09;5056864;28;19927;-82
2023/07/17 07:10:10;;;;;;;;;;;;;;;30.48;nan;101521.63;5054678;28;20299;-82
2023/07/17 07:12:36;;;;;;;;;;;;;;;30.58;nan;101528.53;5057732;28;20426;-83
2023/07/17 07:15:01;;;;;;;;;;;;;;;30.67;nan;101529.13;5058409;28;20792;-82
2023/07/17 07:17:26;;;;;;;;;;;;;;;30.76;nan;101532.47;5059534;28;19927;-82
2023/07/17 07:19:52;;;;;;;;;;;;;;;30.93;nan;101526.47;5062871;28;20304;-82
2023/07/17 07:22:17;;;;;;;;;;;;;;;31.09;nan;101522.78;5049958;28;19925;-82
2023/07/17 07:24:45;;;;;;;;;;;;;;;31.27;nan;101515.59;5058260;28;20411;-82
2023/07/17 07:27:10;;;;;;;;;;;;;;;31.44;nan;101517.88;5056815;28;19920;-82
2023/07/17 07:29:35;;;;;;;;;;;;;;;31.50;nan;101521.91;5061651;28;19920;-80
2023/07/17 07:32:01;;;;;;;;;;;;;;;31.52;nan;101527.06;5056013;28;19924;-80
2023/07/17 07:34:26;;;;;;;;;;;;;;;31.54;nan;101533.03;5056580;28;19925;-80
2023/07/17 07:36:52;;;;;;;;;;;;;;;31.60;nan;101536.28;5055992;28;19991;-81
2023/07/17 07:39:18;;;;;;;;;;;;;;;31.70;nan;101535.66;5059061;28;19967;-80
2023/07/17 07:41:43;;;;;;;;;;;;;;;31.81;nan;101542.19;5058695;28;19921;-80
2023/07/17 07:44:09;;;;;;;;;;;;;;;31.96;nan;101552.31;5059101;28;19924;-81
2023/07/17 07:46:34;;;;;;;;;;;;;;;32.09;nan;101545.34;5056982;28;20019;-81
2023/07/17 07:48:59;;;;;;;;;;;;;;;32.23;nan;101541.94;5056531;28;19920;-81
2023/07/17 07:51:25;;;;;;;;;;;;;;;32.36;nan;101540.56;5063195;28;19916;-80
2023/07/17 07:53:50;;;;;;;;;;;;;;;32.41;nan;101550.53;5060071;28;20023;-80
2023/07/17 07:56:15;;;;;;;;;;;;;;;32.47;nan;101551.78;5057101;28;20002;-81
2023/07/17 07:58:40;;;;;;;;;;;;;;;32.54;nan;101549.09;5057349;28;20292;-81
2023/07/17 08:01:06;;;;;;;;;;;;;;;32.68;nan;101545.69;5055878;28;21387;-81
2023/07/17 08:03:33;;;;;;;;;;;;;;;32.85;nan;101541.50;5060265;28;19916;-81
2023/07/17 08:05:58;;;;;;;;;;;;;;;32.98;nan;101554.75;5057782;28;20050;-81
2023/07/17 08:08:24;;;;;;;;;;;;;;;32.99;nan;101561.88;5062046;28;20015;-80
2023/07/17 08:10:52;;;;;;;;;;;;;;;33.00;nan;101541.28;5057477;28;19920;-80
2023/07/17 08:13:18;;;;;;;;;;;;;;;32.94;nan;101550.34;5058277;28;20019;-81
2023/07/17 08:15:43;;;;;;;;;;;;;;;32.79;nan;101551.34;5054512;28;20042;-82
2023/07/17 08:18:08;;;;;;;;;;;;;;;32.63;nan;101555.13;5057360;28;19920;-82
2023/07/17 08:20:34;;;;;;;;;;;;;;;32.59;nan;101545.97;5055696;28;19974;-82
2023/07/17 08:22:59;;;;;;;;;;;;;;;32.75;nan;101545.75;5055924;28;20071;-82
2023/07/17 08:25:24;;;;;;;;;;;;;;;33.02;nan;101552.00;5055653;28;20381;-82
2023/07/17 08:27:50;;;;;;;;;;;;;;;33.00;nan;101548.81;5060364;28;19971;-82
2023/07/17 08:30:15;;;;;;;;;;;;;;;33.07;nan;101551.66;5055722;28;20282;-83
2023/07/17 08:32:40;;;;;;;;;;;;;;;33.05;nan;101548.47;5057974;28;20330;-81
2023/07/17 08:35:06;;;;;;;;;;;;;;;33.04;nan;101552.44;5057719;28;19977;-82
2023/07/17 08:37:31;;;;;;;;;;;;;;;33.11;nan;101549.72;5059711;28;20339;-80
2023/07/17 08:39:57;;;;;;;;;;;;;;;33.11;nan;101546.94;5057330;28;19927;-81
2023/07/17 08:42:22;;;;;;;;;;;;;;;33.26;nan;101559.78;5049225;28;19982;-83
2023/07/17 08:44:48;;;;;;;;;;;;;;;33.50;nan;101547.28;5056557;28;19946;-83
2023/07/17 08:47:14;;;;;;;;;;;;;;;33.63;nan;101545.00;5053198;28;19924;-82
2023/07/17 08:49:40;;;;;;;;;;;;;;;33.60;nan;101540.22;5055995;28;20293;-81
2023/07/17 08:52:06;;;;;;;;;;;;;;;33.68;nan;101547.41;5057058;28;20371;-81
2023/07/17 08:54:32;;;;;;;;;;;;;;;33.83;nan;101548.31;5055555;28;19920;-82
2023/07/17 08:57:01;;;;;;;;;;;;;;;33.81;nan;101548.69;5058572;28;19939;-81
2023/07/17 08:59:27;;;;;;;;;;;;;;;33.79;nan;101545.50;5056687;28;19974;-82
2023/07/17 09:01:52;;;;;;;;;;;;;;;33.70;nan;101539.47;5054599;28;19948;-82
2023/07/17 09:04:18;;;;;;;;;;;;;;;33.61;nan;101544.59;5056180;28;19934;-82
2023/07/17 09:06:43;;;;;;;;;;;;;;;33.70;nan;101547.03;5057711;28;20399;-82
2023/07/17 09:09:09;;;;;;;;;;;;;;;33.67;nan;101545.03;5056092;28;19921;-82
2023/07/17 09:11:35;;;;;;;;;;;;;;;33.52;nan;101546.91;5059472;28;19962;-83
2023/07/17 09:14:00;;;;;;;;;;;;;;;33.44;nan;101548.03;5053194;28;19925;-82
2023/07/17 09:16:25;;;;;;;;;;;;;;;33.38;nan;101549.56;5054988;28;19924;-82
2023/07/17 09:18:52;;;;;;;;;;;;;;;33.54;nan;101552.84;5054669;28;20059;-82
2023/07/17 09:21:18;;;;;;;;;;;;;;;33.76;nan;101554.63;5053120;28;19942;-82
2023/07/17 09:23:45;;;;;;;;;;;;;;;33.68;nan;101550.19;5053296;28;20007;-81
2023/07/17 09:26:13;;;;;;;;;;;;;;;33.47;nan;101558.38;5053678;28;20151;-81
2023/07/17 09:28:46;;;;;;;;;;;;;;;33.34;nan;101555.09;5058051;28;19917;-82
2023/07/17 09:31:11;;;;;;;;;;;;;;;33.44;nan;101562.72;5054617;28;19943;-82
2023/07/17 09:33:37;;;;;;;;;;;;;;;33.69;nan;101554.56;5052145;28;19921;-82
2023/07/17 09:36:03;;;;;;;;;;;;;;;33.84;nan;101561.00;5053808;28;19925;-81
2023/07/17 09:38:29;;;;;;;;;;;;;;;33.87;nan;101561.06;5056056;28;19988;-83
2023/07/17 09:40:55;;;;;;;;;;;;;;;33.85;nan;101563.44;5057201;28;20000;-82
2023/07/17 09:43:30;;;;;;;;;;;;;;;33.75;nan;101571.66;5053637;28;20011;-82
2023/07/17 09:46:00;;;;;;;;;;;;;;;33.58;nan;101562.03;5054828;28;19916;-82
2023/07/17 09:48:26;;;;;;;;;;;;;;;33.49;nan;101567.13;5052971;28;19920;-82
2023/07/17 09:50:51;;;;;;;;;;;;;;;33.50;nan;101560.38;5053855;28;20188;-81
2023/07/17 09:53:18;;;;;;;;;;;;;;;33.54;nan;101559.22;5051463;28;19939;-83
2023/07/17 09:55:44;;;;;;;;;;;;;;;33.68;nan;101557.72;5053812;28;20384;-82
2023/07/17 09:58:09;;;;;;;;;;;;;;;33.93;nan;101564.25;5055798;28;19927;-82
2023/07/17 10:00:38;;;;;;;;;;;;;;;34.12;nan;101563.19;5052105;28;20356;-81
2023/07/17 10:03:09;;;;;;;;;;;;;;;34.17;nan;101569.19;5052765;28;19931;-84
2023/07/17 10:05:35;;;;;;;;;;;;;;;34.25;nan;101559.66;5053193;28;19928;-81
2023/07/17 10:08:03;;;;;;;;;;;;;;;34.15;nan;101559.63;5052794;28;19928;-82
2023/07/17 10:10:29;;;;;;;;;;;;;;;34.26;nan;101557.69;5056753;28;19924;-82
2023/07/17 10:12:55;;;;;;;;;;;;;;;34.43;nan;101562.53;5051753;28;19920;-83
2023/07/17 10:15:20;;;;;;;;;;;;;;;34.54;nan;101560.59;5050354;28;19931;-82
2023/07/17 10:17:53;;;;;;;;;;;;;;;34.60;nan;101557.44;5053562;28;19921;-81
2023/07/17 10:20:19;;;;;;;;;;;;;;;34.61;nan;101559.03;5056072;28;19931;-81
2023/07/17 10:22:44;;;;;;;;;;;;;;;34.68;nan;101568.22;5053115;28;19924;-81
2023/07/17 10:25:10;;;;;;;;;;;;;;;34.68;nan;101561.84;5054573;28;19968;-81
2023/07/17 10:27:39;;;;;;;;;;;;;;;34.63;nan;101556.66;5053850;28;19917;-83
2023/07/17 10:30:20;;;;;;;;;;;;;;;34.60;nan;101557.44;5055956;28;19920;-83
2023/07/17 10:32:45;;;;;;;;;;;;;;;34.62;nan;101547.50;5052529;28;20363;-81
2023/07/17 10:35:20;;;;;;;;;;;;;;;34.63;nan;101540.75;5054091;28;20103;-81
2023/07/17 10:37:45;;;;;;;;;;;;;;;34.52;nan;101551.06;5054935;28;19924;-81
2023/07/17 10:40:29;;;;;;;;;;;;;;;34.34;nan;101545.41;5056512;28;20422;-82
2023/07/17 10:43:08;;;;;;;;;;;;;;;34.32;nan;101550.56;5052380;28;19916;-83
2023/07/17 10:45:34;;;;;;;;;;;;;;;34.54;nan;101548.69;5053610;28;19920;-82
2023/07/17 10:48:00;;;;;;;;;;;;;;;34.81;nan;101549.13;5052646;28;19917;-82
2023/07/17 10:50:25;;;;;;;;;;;;;;;35.03;nan;101542.44;5062836;28;20023;-82
2023/07/17 10:52:50;;;;;;;;;;;;;;;35.07;nan;101548.03;5055756;28;20308;-83
2023/07/17 10:55:16;;;;;;;;;;;;;;;35.12;nan;101550.41;5056091;28;20003;-82
2023/07/17 10:57:41;;;;;;;;;;;;;;;35.23;nan;101550.41;5057249;28;19963;-82
2023/07/17 11:00:07;;;;;;;;;;;;;;;35.16;nan;101540.03;5057841;28;19921;-83
2023/07/17 11:02:33;;;;;;;;;;;;;;;35.30;nan;101533.69;5052342;28;20392;-83
2023/07/17 11:05:01;;;;;;;;;;;;;;;35.46;nan;101530.53;5056431;28;20400;-83
2023/07/17 11:07:26;;;;;;;;;;;;;;;35.76;nan;101539.25;5055968;28;19920;-83
2023/07/17 11:09:52;;;;;;;;;;;;;;;35.84;nan;101531.66;5055902;28;19959;-82
2023/07/17 11:12:17;;;;;;;;;;;;;;;35.55;nan;101562.38;5058953;28;20600;-84
2023/07/17 11:14:42;;;;;;;;;;;;;;;35.13;nan;101563.13;5057419;28;19931;-83
2023/07/17 11:17:11;;;;;;;;;;;;;;;34.80;nan;101550.31;5060503;28;20026;-83
2023/07/17 11:19:36;;;;;;;;;;;;;;;34.51;nan;101544.69;5060056;28;19917;-82
2023/07/17 11:22:02;;;;;;;;;;;;;;;34.52;nan;101537.94;5055221;28;21280;-83
2023/07/17 11:24:27;;;;;;;;;;;;;;;34.73;nan;101544.75;5055405;28;19916;-83
2023/07/17 11:26:53;;;;;;;;;;;;;;;34.99;nan;101535.25;5062159;28;19922;-83
2023/07/17 11:29:19;;;;;;;;;;;;;;;35.11;nan;101534.88;5055152;28;19924;-83
2023/07/17 11:31:44;;;;;;;;;;;;;;;35.08;nan;101536.47;5054021;28;19917;-83
2023/07/17 11:34:10;;;;;;;;;;;;;;;35.04;nan;101544.03;5056335;28;20015;-81
2023/07/17 11:36:39;;;;;;;;;;;;;;;34.97;nan;101521.75;5055614;28;19928;-83
2023/07/17 11:39:14;;;;;;;;;;;;;;;34.84;nan;101523.31;5055202;28;20292;-83
2023/07/17 11:41:41;;;;;;;;;;;;;;;34.77;nan;101534.41;5062198;28;20350;-82
2023/07/17 11:44:07;;;;;;;;;;;;;;;34.90;nan;101521.75;5057214;28;19983;-83
2023/07/17 11:46:32;;;;;;;;;;;;;;;35.02;nan;101512.22;5052991;28;19975;-83
2023/07/17 11:48:59;;;;;;;;;;;;;;;35.07;nan;101515.41;5057750;28;19923;-84
2023/07/17 11:51:25;;;;;;;;;;;;;;;34.99;nan;101524.13;5062002;28;20007;-84
2023/07/17 11:53:54;;;;;;;;;;;;;;;34.95;nan;101518.56;5058647;28;19950;-84
2023/07/17 11:56:20;;;;;;;;;;;;;;;34.84;nan;101526.88;5055420;28;19931;-82
2023/07/17 11:58:52;;;;;;;;;;;;;;;34.79;nan;101516.13;5054235;28;20400;-81
2023/07/17 12:01:17;;;;;;;;;;;;;;;35.01;nan;101517.00;5053766;28;19920;-83
2023/07/17 12:03:43;;;;;;;;;;;;;;;35.09;nan;101518.56;5052498;28;20605;-82
2023/07/17 12:06:08;;;;;;;;;;;;;;;35.12;nan;101519.75;5053607;28;19959;-83
2023/07/17 12:08:33;;;;;;;;;;;;;;;35.02;nan;101529.72;5061382;28;19920;-82
2023/07/17 12:10:58;;;;;;;;;;;;;;;34.98;nan;101531.69;5057423;28;20007;-83
2023/07/17 12:13:24;;;;;;;;;;;;;;;34.83;nan;101533.66;5058857;28;19931;-84
2023/07/17 12:15:50;;;;;;;;;;;;;;;34.62;nan;101528.03;5056377;28;19985;-83
2023/07/17 12:18:15;;;;;;;;;;;;;;;34.48;nan;101539.94;5057317;28;19924;-82
2023/07/17 12:20:41;;;;;;;;;;;;;;;34.34;nan;101550.97;5063079;28;19927;-83
2023/07/17 12:23:06;;;;;;;;;;;;;;;34.28;nan;101533.03;5060844;28;19989;-83
2023/07/17 12:25:31;;;;;;;;;;;;;;;34.29;nan;101539.41;5062036;28;20427;-82
2023/07/17 12:27:59;;;;;;;;;;;;;;;34.19;nan;101527.06;5055176;28;19970;-84
2023/07/17 12:30:24;;;;;;;;;;;;;;;34.12;nan;101532.59;5061495;28;19917;-82
2023/07/17 12:32:50;;;;;;;;;;;;;;;34.12;nan;101521.50;5058107;28;20266;-81
2023/07/17 12:35:15;;;;;;;;;;;;;;;34.16;nan;101533.41;5059410;28;20035;-83
2023/07/17 12:37:40;;;;;;;;;;;;;;;34.21;nan;101522.69;5059059;28;19931;-83
2023/07/17 12:40:06;;;;;;;;;;;;;;;34.22;nan;101515.16;5060017;28;20014;-84
2023/07/17 12:42:31;;;;;;;;;;;;;;;34.24;nan;101527.47;5059231;28;19983;-81
2023/07/17 12:44:57;;;;;;;;;;;;;;;34.34;nan;101517.59;5058636;28;20487;-81
2023/07/17 12:47:22;;;;;;;;;;;;;;;34.60;nan;101524.03;5058486;28;19924;-81
2023/07/17 12:49:48;;;;;;;;;;;;;;;34.89;nan;101531.28;5056381;28;19921;-81